sensor_id;sensor_type;location;lat;lon;timestamp;P1;durP1;ratioP1;P2;durP2;ratioP2
3815;SDS011;1923;48.154;11.536;2022-11-18T00:00:11;1.40;;;1.30;;
3815;SDS011;1923;48.154;11.536;2022-11-18T00:02:40;3.80;;;1.50;;
3815;SDS011;1923;48.154;11.536;2022-11-18T00:05:08;2.50;;;1.07;;
3815;SDS011;1923;48.154;11.536;2022-11-18T00:07:36;1.27;;;0.83;;
3815;SDS011;1923;48.154;11.536;2022-11-18T00:10:05;1.53;;;0.87;;
3815;SDS011;1923;48.154;11.536;2022-11-18T00:12:33;1.30;;;0.90;;
3815;SDS011;1923;48.154;11.536;2022-11-18T00:15:20;1.27;;;0.97;;
3815;SDS011;1923;48.154;11.536;2022-11-18T00:17:55;1.40;;;1.20;;
3815;SDS011;1923;48.154;11.536;2022-11-18T00:20:23;1.27;;;0.90;;
3815;SDS011;1923;48.154;11.536;2022-11-18T00:22:51;1.03;;;0.77;;
3815;SDS011;1923;48.154;11.536;2022-11-18T00:25:19;1.10;;;1.00;;
3815;SDS011;1923;48.154;11.536;2022-11-18T00:27:47;1.10;;;1.00;;
3815;SDS011;1923;48.154;11.536;2022-11-18T00:30:15;0.60;;;0.53;;
3815;SDS011;1923;48.154;11.536;2022-11-18T00:32:45;0.97;;;0.87;;
3815;SDS011;1923;48.154;11.536;2022-11-18T00:35:13;2.00;;;1.00;;
3815;SDS011;1923;48.154;11.536;2022-11-18T00:37:41;1.00;;;0.50;;
3815;SDS011;1923;48.154;11.536;2022-11-18T00:40:10;0.73;;;0.63;;
3815;SDS011;1923;48.154;11.536;2022-11-18T00:42:38;1.30;;;1.10;;
3815;SDS011;1923;48.154;11.536;2022-11-18T00:45:17;1.00;;;0.67;;
3815;SDS011;1923;48.154;11.536;2022-11-18T00:47:47;1.53;;;1.07;;
3815;SDS011;1923;48.154;11.536;2022-11-18T00:50:15;1.97;;;1.10;;
3815;SDS011;1923;48.154;11.536;2022-11-18T00:52:44;1.27;;;0.90;;
3815;SDS011;1923;48.154;11.536;2022-11-18T00:55:12;1.77;;;1.33;;
3815;SDS011;1923;48.154;11.536;2022-11-18T00:57:40;1.23;;;0.80;;
3815;SDS011;1923;48.154;11.536;2022-11-18T01:00:08;1.33;;;1.10;;
3815;SDS011;1923;48.154;11.536;2022-11-18T01:02:37;1.35;;;0.70;;
3815;SDS011;1923;48.154;11.536;2022-11-18T01:05:07;0.97;;;0.87;;
3815;SDS011;1923;48.154;11.536;2022-11-18T01:07:35;1.10;;;1.00;;
3815;SDS011;1923;48.154;11.536;2022-11-18T01:10:03;1.08;;;0.70;;
3815;SDS011;1923;48.154;11.536;2022-11-18T01:12:32;1.10;;;0.90;;
3815;SDS011;1923;48.154;11.536;2022-11-18T01:15:19;1.10;;;1.00;;
3815;SDS011;1923;48.154;11.536;2022-11-18T01:17:48;1.75;;;0.88;;
3815;SDS011;1923;48.154;11.536;2022-11-18T01:20:18;1.20;;;1.00;;
3815;SDS011;1923;48.154;11.536;2022-11-18T01:22:45;1.55;;;0.80;;
3815;SDS011;1923;48.154;11.536;2022-11-18T01:25:14;1.95;;;0.88;;
3815;SDS011;1923;48.154;11.536;2022-11-18T01:27:42;1.00;;;0.60;;
3815;SDS011;1923;48.154;11.536;2022-11-18T01:30:10;1.60;;;0.80;;
3815;SDS011;1923;48.154;11.536;2022-11-18T01:32:39;1.30;;;0.80;;
3815;SDS011;1923;48.154;11.536;2022-11-18T01:35:07;1.10;;;0.70;;
3815;SDS011;1923;48.154;11.536;2022-11-18T01:37:37;1.17;;;1.07;;
3815;SDS011;1923;48.154;11.536;2022-11-18T01:40:06;1.10;;;0.93;;
3815;SDS011;1923;48.154;11.536;2022-11-18T01:42:35;1.20;;;1.10;;
3815;SDS011;1923;48.154;11.536;2022-11-18T01:45:06;1.17;;;1.07;;
3815;SDS011;1923;48.154;11.536;2022-11-18T01:47:45;0.97;;;0.87;;
3815;SDS011;1923;48.154;11.536;2022-11-18T01:50:17;1.42;;;0.70;;
3815;SDS011;1923;48.154;11.536;2022-11-18T01:52:49;2.50;;;0.80;;
3815;SDS011;1923;48.154;11.536;2022-11-18T01:55:20;1.33;;;0.90;;
3815;SDS011;1923;48.154;11.536;2022-11-18T01:57:52;0.80;;;0.80;;
3815;SDS011;1923;48.154;11.536;2022-11-18T02:00:28;0.80;;;0.80;;
3815;SDS011;1923;48.154;11.536;2022-11-18T02:02:56;0.83;;;0.70;;
3815;SDS011;1923;48.154;11.536;2022-11-18T02:05:25;0.80;;;0.70;;
3815;SDS011;1923;48.154;11.536;2022-11-18T11:08:49;2.60;;;1.33;;
3815;SDS011;1923;48.154;11.536;2022-11-18T11:11:21;4.30;;;2.20;;
3815;SDS011;1923;48.154;11.536;2022-11-18T11:13:53;3.28;;;1.40;;
3815;SDS011;1923;48.154;11.536;2022-11-18T11:16:26;2.33;;;1.63;;
3815;SDS011;1923;48.154;11.536;2022-11-18T11:18:58;3.63;;;1.63;;
3815;SDS011;1923;48.154;11.536;2022-11-18T11:21:29;2.63;;;1.60;;
3815;SDS011;1923;48.154;11.536;2022-11-18T11:23:58;2.43;;;1.73;;
3815;SDS011;1923;48.154;11.536;2022-11-18T11:26:28;2.60;;;1.57;;
3815;SDS011;1923;48.154;11.536;2022-11-18T11:29:28;1.70;;;0.90;;
3815;SDS011;1923;48.154;11.536;2022-11-18T11:32:14;2.80;;;1.80;;
3815;SDS011;1923;48.154;11.536;2022-11-18T11:34:54;1.98;;;0.85;;
3815;SDS011;1923;48.154;11.536;2022-11-18T11:37:37;2.30;;;1.30;;
3815;SDS011;1923;48.154;11.536;2022-11-18T11:40:21;1.70;;;0.90;;
3815;SDS011;1923;48.154;11.536;2022-11-18T11:43:05;1.63;;;1.40;;
3815;SDS011;1923;48.154;11.536;2022-11-18T11:45:55;1.60;;;1.30;;
3815;SDS011;1923;48.154;11.536;2022-11-18T11:48:39;1.90;;;1.20;;
3815;SDS011;1923;48.154;11.536;2022-11-18T11:51:18;1.50;;;1.20;;
3815;SDS011;1923;48.154;11.536;2022-11-18T11:53:56;1.77;;;0.90;;
3815;SDS011;1923;48.154;11.536;2022-11-18T11:56:42;2.30;;;1.20;;
3815;SDS011;1923;48.154;11.536;2022-11-18T11:59:16;1.10;;;1.00;;
3815;SDS011;1923;48.154;11.536;2022-11-18T12:01:54;1.70;;;1.00;;
3815;SDS011;1923;48.154;11.536;2022-11-18T12:04:29;1.93;;;1.60;;
3815;SDS011;1923;48.154;11.536;2022-11-18T12:07:04;1.83;;;1.33;;
3815;SDS011;1923;48.154;11.536;2022-11-18T12:09:38;1.87;;;1.23;;
3815;SDS011;1923;48.154;11.536;2022-11-18T12:12:22;2.37;;;1.10;;
3815;SDS011;1923;48.154;11.536;2022-11-18T12:15:03;1.70;;;1.02;;
3815;SDS011;1923;48.154;11.536;2022-11-18T12:17:39;1.40;;;1.17;;
3815;SDS011;1923;48.154;11.536;2022-11-18T12:23:11;1.20;;;1.10;;
3815;SDS011;1923;48.154;11.536;2022-11-18T12:28:37;1.20;;;1.00;;
3815;SDS011;1923;48.154;11.536;2022-11-18T12:34:18;0.90;;;0.67;;
3815;SDS011;1923;48.154;11.536;2022-11-18T12:40:00;1.30;;;1.20;;
3815;SDS011;1923;48.154;11.536;2022-11-18T12:42:35;2.43;;;1.53;;
3815;SDS011;1923;48.154;11.536;2022-11-18T12:54:15;0.93;;;0.83;;
3815;SDS011;1923;48.154;11.536;2022-11-18T12:56:57;1.87;;;1.40;;
3815;SDS011;1923;48.154;11.536;2022-11-18T12:59:28;1.63;;;1.40;;
3815;SDS011;1923;48.154;11.536;2022-11-18T13:02:14;1.63;;;1.30;;
3815;SDS011;1923;48.154;11.536;2022-11-18T13:05:01;9.53;;;2.13;;
3815;SDS011;1923;48.154;11.536;2022-11-18T13:07:31;2.30;;;2.10;;
3815;SDS011;1923;48.154;11.536;2022-11-18T13:10:20;0.70;;;0.40;;
3815;SDS011;1923;48.154;11.536;2022-11-18T13:12:50;1.47;;;1.13;;
3815;SDS011;1923;48.154;11.536;2022-11-18T13:15:18;1.20;;;1.10;;
3815;SDS011;1923;48.154;11.536;2022-11-18T13:18:09;1.40;;;1.30;;
3815;SDS011;1923;48.154;11.536;2022-11-18T13:20:40;1.10;;;0.80;;
3815;SDS011;1923;48.154;11.536;2022-11-18T13:23:25;2.00;;;1.10;;
3815;SDS011;1923;48.154;11.536;2022-11-18T13:26:14;2.85;;;0.90;;
3815;SDS011;1923;48.154;11.536;2022-11-18T13:28:51;1.83;;;1.47;;
3815;SDS011;1923;48.154;11.536;2022-11-18T13:31:34;2.20;;;1.50;;
3815;SDS011;1923;48.154;11.536;2022-11-18T13:34:11;1.67;;;1.40;;
3815;SDS011;1923;48.154;11.536;2022-11-18T13:36:44;2.70;;;1.47;;
3815;SDS011;1923;48.154;11.536;2022-11-18T13:39:16;2.30;;;1.07;;
3815;SDS011;1923;48.154;11.536;2022-11-18T13:41:58;2.03;;;1.60;;
3815;SDS011;1923;48.154;11.536;2022-11-18T13:44:28;1.90;;;1.50;;
3815;SDS011;1923;48.154;11.536;2022-11-18T13:46:59;2.90;;;1.83;;
3815;SDS011;1923;48.154;11.536;2022-11-18T13:49:39;1.47;;;1.30;;
3815;SDS011;1923;48.154;11.536;2022-11-18T13:52:17;1.80;;;1.60;;
3815;SDS011;1923;48.154;11.536;2022-11-18T13:54:47;1.73;;;1.63;;
3815;SDS011;1923;48.154;11.536;2022-11-18T13:57:18;3.53;;;1.23;;
3815;SDS011;1923;48.154;11.536;2022-11-18T13:59:49;1.60;;;1.33;;
3815;SDS011;1923;48.154;11.536;2022-11-18T14:02:18;1.70;;;1.00;;
3815;SDS011;1923;48.154;11.536;2022-11-18T14:04:50;2.67;;;1.70;;
3815;SDS011;1923;48.154;11.536;2022-11-18T14:07:28;2.20;;;1.80;;
3815;SDS011;1923;48.154;11.536;2022-11-18T14:10:00;2.93;;;1.70;;
3815;SDS011;1923;48.154;11.536;2022-11-18T14:12:30;1.90;;;1.40;;
3815;SDS011;1923;48.154;11.536;2022-11-18T14:17:48;2.10;;;1.90;;
3815;SDS011;1923;48.154;11.536;2022-11-18T14:20:19;2.13;;;1.73;;
3815;SDS011;1923;48.154;11.536;2022-11-18T14:22:49;3.77;;;2.10;;
3815;SDS011;1923;48.154;11.536;2022-11-18T14:25:21;2.73;;;1.90;;
3815;SDS011;1923;48.154;11.536;2022-11-18T14:27:53;2.20;;;2.00;;
3815;SDS011;1923;48.154;11.536;2022-11-18T14:30:23;2.80;;;1.70;;
3815;SDS011;1923;48.154;11.536;2022-11-18T14:35:48;4.20;;;2.60;;
3815;SDS011;1923;48.154;11.536;2022-11-18T14:38:20;2.33;;;2.10;;
3815;SDS011;1923;48.154;11.536;2022-11-18T14:41:11;2.07;;;1.60;;
3815;SDS011;1923;48.154;11.536;2022-11-18T14:43:41;2.70;;;2.50;;
3815;SDS011;1923;48.154;11.536;2022-11-18T14:46:13;2.10;;;1.90;;
3815;SDS011;1923;48.154;11.536;2022-11-18T14:48:43;4.10;;;2.10;;
3815;SDS011;1923;48.154;11.536;2022-11-18T14:51:14;2.30;;;1.40;;
3815;SDS011;1923;48.154;11.536;2022-11-18T14:53:42;2.80;;;1.70;;
3815;SDS011;1923;48.154;11.536;2022-11-18T14:56:12;1.70;;;1.60;;
3815;SDS011;1923;48.154;11.536;2022-11-18T14:58:44;2.83;;;1.70;;
3815;SDS011;1923;48.154;11.536;2022-11-18T15:01:12;1.60;;;1.50;;
3815;SDS011;1923;48.154;11.536;2022-11-18T15:03:40;1.70;;;1.00;;
3815;SDS011;1923;48.154;11.536;2022-11-18T15:06:10;1.30;;;1.20;;
3815;SDS011;1923;48.154;11.536;2022-11-18T15:08:41;2.13;;;1.40;;
3815;SDS011;1923;48.154;11.536;2022-11-18T15:11:11;10.40;;;4.70;;
3815;SDS011;1923;48.154;11.536;2022-11-18T15:13:40;2.67;;;1.53;;
3815;SDS011;1923;48.154;11.536;2022-11-18T15:16:10;2.07;;;1.93;;
3815;SDS011;1923;48.154;11.536;2022-11-18T15:18:41;5.40;;;1.20;;
3815;SDS011;1923;48.154;11.536;2022-11-18T15:21:10;2.17;;;1.97;;
3815;SDS011;1923;48.154;11.536;2022-11-18T15:23:38;1.80;;;1.50;;
3815;SDS011;1923;48.154;11.536;2022-11-18T15:26:14;5.53;;;2.77;;
3815;SDS011;1923;48.154;11.536;2022-11-18T15:28:45;2.17;;;1.80;;
3815;SDS011;1923;48.154;11.536;2022-11-18T15:31:13;2.47;;;1.90;;
3815;SDS011;1923;48.154;11.536;2022-11-18T15:33:41;1.57;;;1.33;;
3815;SDS011;1923;48.154;11.536;2022-11-18T15:36:10;1.77;;;1.50;;
3815;SDS011;1923;48.154;11.536;2022-11-18T15:38:40;2.30;;;1.60;;
3815;SDS011;1923;48.154;11.536;2022-11-18T15:41:13;1.90;;;1.30;;
3815;SDS011;1923;48.154;11.536;2022-11-18T15:43:43;3.10;;;1.20;;
3815;SDS011;1923;48.154;11.536;2022-11-18T15:46:11;4.30;;;1.90;;
3815;SDS011;1923;48.154;11.536;2022-11-18T15:48:41;6.00;;;3.50;;
3815;SDS011;1923;48.154;11.536;2022-11-18T15:51:09;2.93;;;1.60;;
3815;SDS011;1923;48.154;11.536;2022-11-18T15:53:39;3.13;;;1.67;;
3815;SDS011;1923;48.154;11.536;2022-11-18T15:56:19;1.73;;;1.50;;
3815;SDS011;1923;48.154;11.536;2022-11-18T15:58:54;1.80;;;1.17;;
3815;SDS011;1923;48.154;11.536;2022-11-18T16:01:24;2.43;;;1.97;;
3815;SDS011;1923;48.154;11.536;2022-11-18T16:03:53;1.77;;;1.60;;
3815;SDS011;1923;48.154;11.536;2022-11-18T16:06:22;4.50;;;1.87;;
3815;SDS011;1923;48.154;11.536;2022-11-18T16:08:51;3.37;;;2.13;;
3815;SDS011;1923;48.154;11.536;2022-11-18T16:11:27;3.00;;;2.10;;
3815;SDS011;1923;48.154;11.536;2022-11-18T16:14:14;2.53;;;2.00;;
3815;SDS011;1923;48.154;11.536;2022-11-18T16:16:44;3.10;;;2.53;;
3815;SDS011;1923;48.154;11.536;2022-11-18T16:19:14;9.17;;;3.57;;
3815;SDS011;1923;48.154;11.536;2022-11-18T16:21:45;2.77;;;1.67;;
3815;SDS011;1923;48.154;11.536;2022-11-18T16:24:14;2.80;;;2.20;;
3815;SDS011;1923;48.154;11.536;2022-11-18T16:26:45;3.97;;;3.00;;
3815;SDS011;1923;48.154;11.536;2022-11-18T16:29:13;4.07;;;2.00;;
3815;SDS011;1923;48.154;11.536;2022-11-18T16:31:43;3.83;;;2.60;;
3815;SDS011;1923;48.154;11.536;2022-11-18T16:34:16;4.63;;;3.10;;
3815;SDS011;1923;48.154;11.536;2022-11-18T16:36:46;2.27;;;1.90;;
3815;SDS011;1923;48.154;11.536;2022-11-18T16:39:16;3.40;;;2.33;;
3815;SDS011;1923;48.154;11.536;2022-11-18T16:41:48;3.70;;;2.50;;
3815;SDS011;1923;48.154;11.536;2022-11-18T16:44:16;2.43;;;2.23;;
3815;SDS011;1923;48.154;11.536;2022-11-18T16:46:46;2.35;;;1.67;;
3815;SDS011;1923;48.154;11.536;2022-11-18T16:49:15;4.30;;;2.17;;
3815;SDS011;1923;48.154;11.536;2022-11-18T16:51:45;3.85;;;2.38;;
3815;SDS011;1923;48.154;11.536;2022-11-18T16:54:15;3.70;;;2.37;;
3815;SDS011;1923;48.154;11.536;2022-11-18T16:56:44;4.43;;;2.57;;
3815;SDS011;1923;48.154;11.536;2022-11-18T16:59:16;3.75;;;2.30;;
3815;SDS011;1923;48.154;11.536;2022-11-18T17:01:47;3.83;;;2.20;;
3815;SDS011;1923;48.154;11.536;2022-11-18T17:04:16;4.35;;;2.40;;
3815;SDS011;1923;48.154;11.536;2022-11-18T17:06:44;3.33;;;1.83;;
3815;SDS011;1923;48.154;11.536;2022-11-18T17:09:13;4.77;;;2.30;;
3815;SDS011;1923;48.154;11.536;2022-11-18T17:11:43;2.73;;;2.10;;
3815;SDS011;1923;48.154;11.536;2022-11-18T17:14:12;2.83;;;2.20;;
3815;SDS011;1923;48.154;11.536;2022-11-18T17:16:41;4.63;;;2.20;;
3815;SDS011;1923;48.154;11.536;2022-11-18T17:19:10;3.03;;;2.20;;
3815;SDS011;1923;48.154;11.536;2022-11-18T17:21:41;2.70;;;2.13;;
3815;SDS011;1923;48.154;11.536;2022-11-18T17:24:10;4.90;;;2.30;;
3815;SDS011;1923;48.154;11.536;2022-11-18T17:26:40;2.50;;;2.30;;
3815;SDS011;1923;48.154;11.536;2022-11-18T17:29:09;4.57;;;2.80;;
3815;SDS011;1923;48.154;11.536;2022-11-18T17:31:39;3.03;;;2.50;;
3815;SDS011;1923;48.154;11.536;2022-11-18T17:34:08;4.23;;;2.27;;
3815;SDS011;1923;48.154;11.536;2022-11-18T17:36:38;3.87;;;2.37;;
3815;SDS011;1923;48.154;11.536;2022-11-18T17:39:07;3.73;;;2.57;;
3815;SDS011;1923;48.154;11.536;2022-11-18T17:41:37;3.10;;;2.40;;
3815;SDS011;1923;48.154;11.536;2022-11-18T17:44:22;3.50;;;2.87;;
3815;SDS011;1923;48.154;11.536;2022-11-18T17:46:52;2.60;;;2.40;;
3815;SDS011;1923;48.154;11.536;2022-11-18T17:49:20;4.93;;;3.00;;
3815;SDS011;1923;48.154;11.536;2022-11-18T17:51:48;4.93;;;3.13;;
3815;SDS011;1923;48.154;11.536;2022-11-18T17:54:17;4.90;;;3.27;;
3815;SDS011;1923;48.154;11.536;2022-11-18T17:57:10;4.13;;;3.20;;
3815;SDS011;1923;48.154;11.536;2022-11-18T18:00:02;6.80;;;3.53;;
3815;SDS011;1923;48.154;11.536;2022-11-18T18:02:32;4.20;;;2.67;;
3815;SDS011;1923;48.154;11.536;2022-11-18T18:05:00;3.20;;;2.70;;
3815;SDS011;1923;48.154;11.536;2022-11-18T18:07:28;3.83;;;2.30;;
3815;SDS011;1923;48.154;11.536;2022-11-18T18:09:56;2.87;;;2.63;;
3815;SDS011;1923;48.154;11.536;2022-11-18T18:12:24;4.60;;;3.27;;
3815;SDS011;1923;48.154;11.536;2022-11-18T18:15:10;3.37;;;2.50;;
3815;SDS011;1923;48.154;11.536;2022-11-18T18:17:39;3.30;;;2.40;;
3815;SDS011;1923;48.154;11.536;2022-11-18T18:20:07;3.33;;;2.60;;
3815;SDS011;1923;48.154;11.536;2022-11-18T18:22:36;4.83;;;2.80;;
3815;SDS011;1923;48.154;11.536;2022-11-18T18:25:04;3.30;;;2.47;;
3815;SDS011;1923;48.154;11.536;2022-11-18T18:27:33;3.53;;;2.63;;
3815;SDS011;1923;48.154;11.536;2022-11-18T18:30:01;3.10;;;2.57;;
3815;SDS011;1923;48.154;11.536;2022-11-18T18:32:29;4.00;;;3.07;;
3815;SDS011;1923;48.154;11.536;2022-11-18T18:34:59;4.77;;;3.40;;
3815;SDS011;1923;48.154;11.536;2022-11-18T18:37:27;4.30;;;2.77;;
3815;SDS011;1923;48.154;11.536;2022-11-18T18:39:55;4.00;;;2.83;;
3815;SDS011;1923;48.154;11.536;2022-11-18T18:42:23;7.00;;;3.40;;
3815;SDS011;1923;48.154;11.536;2022-11-18T18:44:51;3.47;;;2.77;;
3815;SDS011;1923;48.154;11.536;2022-11-18T18:47:36;4.13;;;2.47;;
3815;SDS011;1923;48.154;11.536;2022-11-18T18:50:06;3.80;;;2.97;;
3815;SDS011;1923;48.154;11.536;2022-11-18T18:52:34;4.97;;;3.23;;
3815;SDS011;1923;48.154;11.536;2022-11-18T18:55:02;5.57;;;2.90;;
3815;SDS011;1923;48.154;11.536;2022-11-18T18:57:30;4.87;;;3.50;;
3815;SDS011;1923;48.154;11.536;2022-11-18T18:59:58;4.43;;;2.70;;
3815;SDS011;1923;48.154;11.536;2022-11-18T19:02:26;5.43;;;2.87;;
3815;SDS011;1923;48.154;11.536;2022-11-18T19:04:54;4.40;;;2.97;;
3815;SDS011;1923;48.154;11.536;2022-11-18T19:07:25;3.63;;;2.87;;
3815;SDS011;1923;48.154;11.536;2022-11-18T19:09:56;4.33;;;2.87;;
3815;SDS011;1923;48.154;11.536;2022-11-18T19:12:24;30.97;;;10.83;;
3815;SDS011;1923;48.154;11.536;2022-11-18T19:15:17;4.80;;;3.57;;
3815;SDS011;1923;48.154;11.536;2022-11-18T19:17:48;4.30;;;2.87;;
3815;SDS011;1923;48.154;11.536;2022-11-18T19:20:16;5.40;;;3.37;;
3815;SDS011;1923;48.154;11.536;2022-11-18T19:23:04;5.80;;;3.20;;
3815;SDS011;1923;48.154;11.536;2022-11-18T19:25:36;5.43;;;3.25;;
3815;SDS011;1923;48.154;11.536;2022-11-18T19:28:04;5.57;;;3.70;;
3815;SDS011;1923;48.154;11.536;2022-11-18T19:30:32;4.78;;;2.70;;
3815;SDS011;1923;48.154;11.536;2022-11-18T19:33:00;4.30;;;3.30;;
3815;SDS011;1923;48.154;11.536;2022-11-18T19:35:29;3.97;;;3.13;;
3815;SDS011;1923;48.154;11.536;2022-11-18T19:37:57;5.30;;;3.60;;
3815;SDS011;1923;48.154;11.536;2022-11-18T19:40:27;3.90;;;2.90;;
3815;SDS011;1923;48.154;11.536;2022-11-18T19:42:55;3.10;;;2.80;;
3815;SDS011;1923;48.154;11.536;2022-11-18T19:45:24;4.50;;;3.03;;
3815;SDS011;1923;48.154;11.536;2022-11-18T19:47:53;4.30;;;3.23;;
3815;SDS011;1923;48.154;11.536;2022-11-18T19:50:21;3.13;;;2.30;;
3815;SDS011;1923;48.154;11.536;2022-11-18T19:52:49;3.40;;;2.80;;
3815;SDS011;1923;48.154;11.536;2022-11-18T19:55:17;3.03;;;2.73;;
3815;SDS011;1923;48.154;11.536;2022-11-18T19:57:47;3.27;;;2.77;;
3815;SDS011;1923;48.154;11.536;2022-11-18T20:00:15;2.97;;;2.57;;
3815;SDS011;1923;48.154;11.536;2022-11-18T20:02:44;3.77;;;2.70;;
3815;SDS011;1923;48.154;11.536;2022-11-18T20:05:12;2.87;;;2.53;;
3815;SDS011;1923;48.154;11.536;2022-11-18T20:07:58;3.40;;;3.10;;
3815;SDS011;1923;48.154;11.536;2022-11-18T20:10:26;3.03;;;2.83;;
3815;SDS011;1923;48.154;11.536;2022-11-18T20:12:55;3.77;;;3.37;;
3815;SDS011;1923;48.154;11.536;2022-11-18T20:15:23;4.60;;;3.00;;
3815;SDS011;1923;48.154;11.536;2022-11-18T20:17:51;3.60;;;2.93;;
3815;SDS011;1923;48.154;11.536;2022-11-18T20:20:19;4.67;;;3.03;;
3815;SDS011;1923;48.154;11.536;2022-11-18T20:22:47;5.17;;;3.53;;
3815;SDS011;1923;48.154;11.536;2022-11-18T20:25:15;5.50;;;3.47;;
3815;SDS011;1923;48.154;11.536;2022-11-18T20:27:43;4.80;;;3.03;;
3815;SDS011;1923;48.154;11.536;2022-11-18T20:30:13;4.57;;;2.90;;
3815;SDS011;1923;48.154;11.536;2022-11-18T20:32:42;4.80;;;2.75;;
3815;SDS011;1923;48.154;11.536;2022-11-18T20:35:11;4.80;;;3.07;;
3815;SDS011;1923;48.154;11.536;2022-11-18T20:37:39;4.03;;;2.80;;
3815;SDS011;1923;48.154;11.536;2022-11-18T20:40:08;4.93;;;3.30;;
3815;SDS011;1923;48.154;11.536;2022-11-18T20:42:37;4.63;;;3.50;;
3815;SDS011;1923;48.154;11.536;2022-11-18T20:45:24;4.50;;;2.83;;
3815;SDS011;1923;48.154;11.536;2022-11-18T20:47:52;3.87;;;3.00;;
3815;SDS011;1923;48.154;11.536;2022-11-18T20:50:19;3.40;;;3.03;;
3815;SDS011;1923;48.154;11.536;2022-11-18T20:52:48;3.43;;;2.83;;
3815;SDS011;1923;48.154;11.536;2022-11-18T20:55:15;4.10;;;3.13;;
3815;SDS011;1923;48.154;11.536;2022-11-18T20:57:43;3.00;;;2.70;;
3815;SDS011;1923;48.154;11.536;2022-11-18T21:00:12;5.97;;;3.10;;
3815;SDS011;1923;48.154;11.536;2022-11-18T21:02:42;5.80;;;2.60;;
3815;SDS011;1923;48.154;11.536;2022-11-18T21:05:10;3.37;;;2.60;;
3815;SDS011;1923;48.154;11.536;2022-11-18T21:07:38;5.70;;;2.70;;
3815;SDS011;1923;48.154;11.536;2022-11-18T21:10:06;3.93;;;2.60;;
3815;SDS011;1923;48.154;11.536;2022-11-18T21:12:35;4.37;;;3.10;;
3815;SDS011;1923;48.154;11.536;2022-11-18T21:15:23;3.93;;;2.73;;
3815;SDS011;1923;48.154;11.536;2022-11-18T21:17:51;3.60;;;2.60;;
3815;SDS011;1923;48.154;11.536;2022-11-18T21:20:19;2.40;;;2.20;;
3815;SDS011;1923;48.154;11.536;2022-11-18T21:23:04;3.80;;;2.65;;
3815;SDS011;1923;48.154;11.536;2022-11-18T21:25:32;3.50;;;2.30;;
3815;SDS011;1923;48.154;11.536;2022-11-18T21:28:00;4.00;;;2.27;;
3815;SDS011;1923;48.154;11.536;2022-11-18T21:30:29;4.27;;;2.30;;
3815;SDS011;1923;48.154;11.536;2022-11-18T21:32:59;4.77;;;2.80;;
3815;SDS011;1923;48.154;11.536;2022-11-18T21:35:27;3.93;;;2.80;;
3815;SDS011;1923;48.154;11.536;2022-11-18T21:37:57;4.60;;;3.30;;
3815;SDS011;1923;48.154;11.536;2022-11-18T21:40:25;7.40;;;3.20;;
3815;SDS011;1923;48.154;11.536;2022-11-18T21:42:53;2.93;;;2.57;;
3815;SDS011;1923;48.154;11.536;2022-11-18T21:45:21;4.17;;;2.20;;
3815;SDS011;1923;48.154;11.536;2022-11-18T21:47:49;4.03;;;2.47;;
3815;SDS011;1923;48.154;11.536;2022-11-18T21:50:18;3.60;;;2.60;;
3815;SDS011;1923;48.154;11.536;2022-11-18T21:52:46;2.80;;;2.57;;
3815;SDS011;1923;48.154;11.536;2022-11-18T21:55:14;2.27;;;2.07;;
3815;SDS011;1923;48.154;11.536;2022-11-18T21:57:42;6.43;;;3.10;;
3815;SDS011;1923;48.154;11.536;2022-11-18T22:00:11;4.23;;;2.53;;
3815;SDS011;1923;48.154;11.536;2022-11-18T22:02:39;2.80;;;2.43;;
3815;SDS011;1923;48.154;11.536;2022-11-18T22:05:07;3.70;;;2.17;;
3815;SDS011;1923;48.154;11.536;2022-11-18T22:07:37;2.20;;;2.00;;
3815;SDS011;1923;48.154;11.536;2022-11-18T22:10:05;3.50;;;2.47;;
3815;SDS011;1923;48.154;11.536;2022-11-18T22:12:34;2.50;;;1.60;;
3815;SDS011;1923;48.154;11.536;2022-11-18T22:15:02;3.33;;;2.50;;
3815;SDS011;1923;48.154;11.536;2022-11-18T22:17:30;5.50;;;2.47;;
3815;SDS011;1923;48.154;11.536;2022-11-18T22:19:58;2.87;;;2.30;;
3815;SDS011;1923;48.154;11.536;2022-11-18T22:22:26;3.37;;;2.20;;
3815;SDS011;1923;48.154;11.536;2022-11-18T22:24:55;2.33;;;2.13;;
3815;SDS011;1923;48.154;11.536;2022-11-18T22:27:23;3.23;;;2.10;;
3815;SDS011;1923;48.154;11.536;2022-11-18T22:29:51;4.57;;;2.63;;
3815;SDS011;1923;48.154;11.536;2022-11-18T22:32:19;3.50;;;2.67;;
3815;SDS011;1923;48.154;11.536;2022-11-18T22:34:47;3.63;;;2.20;;
3815;SDS011;1923;48.154;11.536;2022-11-18T22:37:17;2.70;;;1.87;;
3815;SDS011;1923;48.154;11.536;2022-11-18T22:39:45;4.45;;;2.17;;
3815;SDS011;1923;48.154;11.536;2022-11-18T22:42:14;3.47;;;2.10;;
3815;SDS011;1923;48.154;11.536;2022-11-18T22:44:59;1.70;;;1.50;;
3815;SDS011;1923;48.154;11.536;2022-11-18T22:47:27;1.93;;;1.70;;
3815;SDS011;1923;48.154;11.536;2022-11-18T22:49:55;2.50;;;2.20;;
3815;SDS011;1923;48.154;11.536;2022-11-18T22:52:24;3.63;;;2.10;;
3815;SDS011;1923;48.154;11.536;2022-11-18T22:54:52;2.27;;;1.90;;
3815;SDS011;1923;48.154;11.536;2022-11-18T22:57:21;2.83;;;1.77;;
3815;SDS011;1923;48.154;11.536;2022-11-18T22:59:49;2.10;;;1.57;;
3815;SDS011;1923;48.154;11.536;2022-11-18T23:02:17;4.63;;;2.30;;
3815;SDS011;1923;48.154;11.536;2022-11-18T23:04:45;2.40;;;1.90;;
3815;SDS011;1923;48.154;11.536;2022-11-18T23:07:13;1.93;;;1.83;;
3815;SDS011;1923;48.154;11.536;2022-11-18T23:09:41;2.90;;;2.00;;
3815;SDS011;1923;48.154;11.536;2022-11-18T23:12:09;2.30;;;1.50;;
3815;SDS011;1923;48.154;11.536;2022-11-18T23:14:56;1.80;;;1.60;;
3815;SDS011;1923;48.154;11.536;2022-11-18T23:17:24;2.87;;;2.27;;
3815;SDS011;1923;48.154;11.536;2022-11-18T23:19:52;2.10;;;1.60;;
3815;SDS011;1923;48.154;11.536;2022-11-18T23:22:20;1.60;;;1.50;;
3815;SDS011;1923;48.154;11.536;2022-11-18T23:24:48;1.60;;;1.50;;
3815;SDS011;1923;48.154;11.536;2022-11-18T23:27:16;1.73;;;1.50;;
3815;SDS011;1923;48.154;11.536;2022-11-18T23:29:44;1.97;;;1.77;;
3815;SDS011;1923;48.154;11.536;2022-11-18T23:32:13;3.00;;;2.70;;
3815;SDS011;1923;48.154;11.536;2022-11-18T23:34:41;1.73;;;1.27;;
3815;SDS011;1923;48.154;11.536;2022-11-18T23:37:09;1.77;;;1.30;;
3815;SDS011;1923;48.154;11.536;2022-11-18T23:39:37;2.57;;;1.50;;
3815;SDS011;1923;48.154;11.536;2022-11-18T23:42:05;3.70;;;1.47;;
3815;SDS011;1923;48.154;11.536;2022-11-18T23:44:33;2.13;;;1.60;;
3815;SDS011;1923;48.154;11.536;2022-11-18T23:47:17;2.80;;;1.87;;
3815;SDS011;1923;48.154;11.536;2022-11-18T23:49:45;3.33;;;1.43;;
3815;SDS011;1923;48.154;11.536;2022-11-18T23:52:13;4.33;;;1.53;;
3815;SDS011;1923;48.154;11.536;2022-11-18T23:54:41;1.00;;;1.00;;
3815;SDS011;1923;48.154;11.536;2022-11-18T23:57:09;1.67;;;1.43;;
3815;SDS011;1923;48.154;11.536;2022-11-18T23:59:37;2.40;;;1.70;;
